• Join FlightAware (Why Join?)
  • Login
  • US Flag 
03:09AM EDT


 

Airport Tracker/Info


-or-


 

Live Flight TrackerFlight Track Log ✈ TCF3559 ✈ 05-May-2013 ✈ KCLE - KIAH

Flight Track Log - Related Links

Times and Time Zones

All times are in EDT time to prevent confusion due to time zone crossing. See the TCF3559 flight status page for this flight to view local times or setup timezone preferences in your user account.

Time Position Orientation Groundspeed Altitude Reporting Facility
EDT Latitude Longitude Course Direction KTS MPH feet Rate Location/Type
11:30AM 41.4236 -81.8292 240° Southwest 177 204 2,000  Level Cleveland Center
11:30AM 41.4425 -81.8297 359° North 185 213 2,600 1,080 Climbing Cleveland Center
11:31AM 41.4861 -81.8472 343° North 256 295 3,300 1,080 Climbing Cleveland Center
11:31AM 41.4983 -81.8750 300° West 279 321 3,700 1,980 Climbing Cleveland Center
11:32AM 41.4725 -81.9272 237° Southwest 246 283 5,300 1,920 Climbing Cleveland Center
11:33AM 41.2281 -82.4064 248° West  Level FlightAware Approximate
11:33AM 41.4431 -81.9569 217° Southwest 273 314 6,100  Level Cleveland Center
11:33AM 41.4133 -81.9925 222° Southwest 284 327 7,400 2,400 Climbing Cleveland Center
11:33AM 41.3964 -82.0281 238° Southwest 296 341 8,300 2,460 Climbing Cleveland Center
11:34AM 41.1798 -82.5423 242° Southwest  Level FlightAware Approximate
11:34AM 41.3725 -82.0883 242° Southwest 304 350 9,900  Level Cleveland Center
11:35AM 41.1252 -82.6745 240° Southwest  Level FlightAware Approximate
11:35AM 41.3317 -82.1925 242° Southwest 310 357 11,600  Level Cleveland Center
11:36AM 41.2883 -82.3019 242° Southwest 325 374 13,900 1,980 Climbing Cleveland Center
11:37AM 41.2428 -82.4167 242° Southwest 338 389 15,600 1,680 Climbing Cleveland Center
11:38AM 41.1950 -82.5342 242° Southwest 356 410 17,300 1,440 Climbing Cleveland Center
11:39AM 41.1472 -82.6375 238° Southwest 366 421 18,500 1,440 Climbing Cleveland Center
11:40AM 41.0992 -82.7628 243° Southwest 374 430 20,200 1,680 Climbing Cleveland Center
11:41AM 41.0817 -82.9025 261° West 379 436 21,900 1,500 Climbing Cleveland Center
11:42AM 41.0619 -83.0450 260° West 394 453 23,200 1,320 Climbing Cleveland Center
11:43AM 41.0397 -83.2011 259° West 394 453 24,600 1,380 Climbing Cleveland Center
11:44AM 41.0175 -83.3489 259° West 399 459 26,000 1,200 Climbing Cleveland Center
11:45AM 40.9978 -83.4747 258° West 412 474 27,100 1,020 Climbing Cleveland Center
11:47AM 40.9386 -83.7603 255° West 422 486 29,000 1,020 Climbing Indianapolis Center
11:48AM 40.8514 -83.8514 218° Southwest 400 460 30,100 900 Climbing Indianapolis Center
11:49AM 40.7569 -83.9361 214° Southwest 407 468 30,900 960 Climbing Indianapolis Center
11:50AM 40.6628 -84.0233 215° Southwest 411 473 32,100 1,140 Climbing Indianapolis Center
11:51AM 40.5706 -84.1086 215° Southwest 405 466 33,300 900 Climbing Indianapolis Center
11:52AM 40.4800 -84.1889 214° Southwest 393 452 34,000 300 Climbing Indianapolis Center
11:53AM 40.3783 -84.2822 215° Southwest 382 440 34,000  Level Indianapolis Center
11:54AM 40.2906 -84.3617 215° Southwest 382 440 34,000  Level Indianapolis Center
11:55AM 40.2033 -84.4400 214° Southwest 380 437 34,000  Level Indianapolis Center
11:56AM 40.1172 -84.5164 214° Southwest 373 429 34,000  Level Indianapolis Center
11:57AM 40.0317 -84.5942 215° Southwest 374 430 34,000  Level Indianapolis Center
11:58AM 39.9433 -84.6703 213° Southwest 376 433 34,000  Level Indianapolis Center
11:59AM 39.8422 -84.7622 215° Southwest 378 435 34,000  Level Indianapolis Center
12:00PM 39.7544 -84.8422 215° Southwest 383 441 34,000  Level Indianapolis Center
12:01PM 39.6850 -84.9414 228° Southwest 393 452 34,000  Level Indianapolis Center
12:02PM 39.6250 -85.0683 238° Southwest 411 473 34,000  Level Indianapolis Center
12:04PM 39.5689 -85.1944 240° Southwest 405 466 34,000 360 Level Indianapolis Center
12:05PM 39.4967 -85.3394 237° Southwest 399 459 34,800 840 Climbing Indianapolis Center
12:06PM 39.4214 -85.4361 225° Southwest 379 436 35,800 540 Climbing Indianapolis Center
12:07PM 39.3483 -85.5319 225° Southwest 375 432 36,000 60 Climbing Indianapolis Center
12:08PM 39.2711 -85.6308 225° Southwest 386 444 36,000  Level Indianapolis Center
12:09PM 39.1939 -85.7317 225° Southwest 393 452 36,000  Level Indianapolis Center
12:10PM 39.1150 -85.8328 225° Southwest 397 457 36,000  Level Indianapolis Center
12:11PM 39.0364 -85.9344 225° Southwest 399 459 36,000  Level Indianapolis Center
12:12PM 38.9589 -86.0361 226° Southwest 399 459 36,000  Level Indianapolis Center
12:13PM 38.8711 -86.1461 224° Southwest 406 467 36,000  Level Indianapolis Center
12:14PM 38.7906 -86.2508 225° Southwest 410 472 36,000  Level Indianapolis Center
12:15PM 38.7069 -86.3539 224° Southwest 413 475 36,000  Level Indianapolis Center
12:16PM 38.6075 -86.4817 225° Southwest 419 482 36,000  Level Indianapolis Center
12:17PM 38.5222 -86.5875 224° Southwest 423 487 36,000  Level Indianapolis Center
12:18PM 38.4383 -86.6939 225° Southwest 423 487 36,000  Level Indianapolis Center
12:19PM 38.3531 -86.7997 224° Southwest 423 487 36,000  Level Indianapolis Center
12:20PM 38.2675 -86.9061 224° Southwest 422 486 36,000  Level Indianapolis Center
12:21PM 38.1800 -87.0153 224° Southwest 426 490 36,000  Level Indianapolis Center
12:22PM 38.0931 -87.1233 224° Southwest 427 491 36,000  Level Indianapolis Center
12:23PM 38.0064 -87.2303 224° Southwest 431 496 36,000  Level Indianapolis Center
12:24PM 37.9186 -87.3372 224° Southwest 432 497 36,000  Level Indianapolis Center
12:25PM 37.8303 -87.4450 224° Southwest 437 503 36,000  Level Indianapolis Center
12:26PM 37.7400 -87.5553 224° Southwest 438 504 36,000  Level Indianapolis Center
12:27PM 37.6511 -87.6639 224° Southwest 440 506 36,000  Level Indianapolis Center
12:28PM 37.5694 -87.7747 227° Southwest 443 510 36,000  Level Memphis Center
12:29PM 37.4842 -87.8819 225° Southwest 438 504 36,000  Level Memphis Center
12:30PM 37.3925 -87.9842 222° Southwest 438 504 36,000  Level Memphis Center
12:31PM 37.3069 -88.0883 224° Southwest 443 510 36,000  Level Memphis Center
12:32PM 37.2172 -88.1975 224° Southwest 443 510 36,000  Level Memphis Center
12:33PM 37.1272 -88.2989 222° Southwest 443 510 36,000  Level Memphis Center
12:34PM 37.0394 -88.4053 224° Southwest 443 510 36,000  Level Memphis Center
12:35PM 36.9514 -88.5111 224° Southwest 443 510 36,000  Level Memphis Center
12:36PM 36.8633 -88.6117 222° Southwest 438 504 36,000  Level Memphis Center
12:37PM 36.7750 -88.7147 223° Southwest 438 504 36,000  Level Memphis Center
12:38PM 36.6847 -88.8225 224° Southwest 438 504 36,000  Level Memphis Center
12:39PM 36.5944 -88.9250 222° Southwest 438 504 36,000  Level Memphis Center
12:40PM 36.5036 -89.0275 222° Southwest 438 504 36,000  Level Memphis Center
12:41PM 36.4111 -89.1294 222° Southwest 438 504 36,000  Level Memphis Center
12:42PM 36.3306 -89.2311 225° Southwest 445 512 36,000  Level Memphis Center
12:43PM 36.2336 -89.3356 221° Southwest 459 528 36,000  Level Memphis Center
12:44PM 36.1447 -89.4419 224° Southwest 459 528 36,000  Level Memphis Center
12:45PM 36.0517 -89.5458 222° Southwest 459 528 36,000  Level Memphis Center
12:46PM 35.9625 -89.6492 223° Southwest 454 522 36,000  Level Memphis Center
12:47PM 35.8694 -89.7550 223° Southwest 454 522 36,000  Level Memphis Center
12:48PM 35.7781 -89.8581 222° Southwest 454 522 36,000  Level Memphis Center
12:49PM 35.6825 -89.9711 224° Southwest 440 506 36,000  Level Memphis Center
12:50PM 35.5911 -90.0761 223° Southwest 440 506 36,000  Level Memphis Center
12:51PM 35.5017 -90.1761 222° Southwest 446 513 36,000  Level Memphis Center
12:52PM 35.4100 -90.2806 223° Southwest 446 513 36,000  Level Memphis Center
12:53PM 35.3181 -90.3825 222° Southwest 451 519 36,000  Level Memphis Center
12:54PM 35.2283 -90.4842 223° Southwest 444 511 36,000  Level Memphis Center
12:55PM 35.1406 -90.5831 223° Southwest 444 511 36,000  Level Memphis Center
12:56PM 35.0486 -90.6792 221° Southwest 444 511 36,000  Level Memphis Center
12:57PM 34.9567 -90.7803 222° Southwest 439 505 36,000  Level Memphis Center
12:58PM 34.8664 -90.8811 223° Southwest 444 511 36,000  Level Memphis Center
12:59PM 34.7847 -90.9692 222° Southwest 444 511 36,000  Level Memphis Center
01:00PM 34.6903 -91.0719 222° Southwest 444 511 36,000  Level Memphis Center
01:01PM 34.6019 -91.1722 223° Southwest 449 517 36,000  Level Memphis Center
01:02PM 34.5075 -91.2694 220° Southwest 449 517 36,000  Level Memphis Center
01:03PM 34.4150 -91.3667 221° Southwest 449 517 36,000  Level Memphis Center
01:04PM 34.3222 -91.4686 222° Southwest 449 517 36,000  Level Memphis Center
01:05PM 34.2294 -91.5681 222° Southwest 449 517 36,000  Level Memphis Center
01:06PM 34.1283 -91.6794 222° Southwest 449 517 36,000  Level Memphis Center
01:07PM 34.0394 -91.7783 223° Southwest 444 511 36,000  Level Memphis Center
01:09PM 33.8731 -91.9553 221° Southwest 449 517 36,000  Level Fort Worth Center
01:10PM 33.7814 -92.0533 222° Southwest 449 517 36,000  Level Fort Worth Center
01:11PM 33.6872 -92.1464 219° Southwest 444 511 36,000  Level Fort Worth Center
01:12PM 33.5664 -92.1986 200° South 442 509 36,000  Level Fort Worth Center
01:13PM 33.4428 -92.2358 194° South 448 516 36,000  Level Fort Worth Center
01:14PM 33.3231 -92.2728 194° South 453 521 36,000  Level Fort Worth Center
01:15PM 33.1994 -92.3072 193° South 458 527 36,000  Level Fort Worth Center
01:16PM 33.0778 -92.3464 195° South 458 527 36,000  Level Fort Worth Center
01:17PM 32.9583 -92.3828 194° South 453 521 36,000  Level Fort Worth Center
01:18PM 32.8406 -92.4142 193° South 441 507 36,000  Level Fort Worth Center
01:20PM 32.5397 -92.5097 195° South 439 505 36,000  Level Houston Center
01:21PM 32.4194 -92.5433 193° South 443 510 36,000  Level Houston Center
01:22PM 32.3000 -92.5800 195° South 442 509 36,000  Level Houston Center
01:24PM 32.1814 -92.6158 194° South 442 509 36,000  Level Houston Center
01:25PM 32.0389 -92.6581 194° South 439 505 36,000  Level Houston Center
01:26PM 31.9344 -92.7131 204° Southwest 404 465 36,000  Level Houston Center
01:27PM 31.8508 -92.7961 220° Southwest 395 455 36,000  Level Houston Center
01:28PM 31.7656 -92.8783 219° Southwest 396 456 36,000  Level Houston Center
01:29PM 31.6794 -92.9611 219° Southwest 400 460 36,000  Level Houston Center
01:30PM 31.5933 -93.0431 219° Southwest 399 459 36,000  Level Houston Center
01:31PM 31.4903 -93.1436 220° Southwest 402 463 36,000  Level Houston Center
01:32PM 31.4039 -93.2253 219° Southwest 401 461 36,000  Level Houston Center
01:33PM 31.3181 -93.3089 220° Southwest 381 438 36,000 -180 Level Houston Center
01:34PM 31.2311 -93.3664 209° Southwest 394 453 35,700 -840 Descending Houston Center
01:35PM 31.1133 -93.3486 173° South 427 491 34,300 -1,680 Descending Houston Center
01:36PM 30.9761 -93.3550 182° South 417 480 32,300 -1,800 Descending Houston Center
01:37PM 30.8997 -93.4400 224° Southwest 386 444 30,600 -1,680 Descending Houston Center
01:38PM 30.8300 -93.5339 229° Southwest 385 443 28,900 -1,740 Descending Houston Center
01:39PM 30.7525 -93.6356 228° Southwest 418 481 27,100 -1,800 Descending Houston Center
01:40PM 30.6806 -93.7328 229° Southwest 406 467 25,300 -1,500 Descending Houston Center
01:41PM 30.5925 -93.8467 228° Southwest 399 459 24,000 -1,320 Descending Houston Center
01:42PM 30.5203 -93.9428 229° Southwest 400 460 22,600 -1,860 Descending Houston Center
01:43PM 30.4492 -94.0344 228° Southwest 388 447 20,200 -2,280 Descending Houston Center
01:44PM 30.3814 -94.1244 229° Southwest 375 432 17,900 -2,220 Descending Houston Center
01:45PM 30.3136 -94.2131 228° Southwest 370 426 15,700 -2,340 Descending Houston Center
01:46PM 30.2372 -94.3133 229° Southwest 352 405 13,100 -2,160 Descending Houston Center
01:47PM 30.1886 -94.4142 241° Southwest 332 382 11,300 -1,440 Descending Houston Center
01:48PM 30.1658 -94.4917 251° West 289 333 10,200 -1,380 Descending Houston Center
01:49PM 30.1422 -94.5869 254° West 270 311 8,500 -1,440 Descending Houston Center
01:50PM 30.1258 -94.6567 255° West 266 306 7,300 -1,200 Descending Houston Center
01:51PM 30.1017 -94.7517 254° West 261 300 6,100 -1,260 Descending Houston Center
01:53PM 30.0822 -94.8319 254° West 257 296 4,800 -1,080 Descending Houston Center
01:54PM 30.0508 -94.9033 243° Southwest 249 287 3,900 -420 Descending Houston Center
01:55PM 30.0267 -94.9592 243° Southwest 191 220 4,000  Climbing Houston Center
01:56PM 30.0139 -95.0236 257° West 188 216 4,000 -120 Level Houston Center
01:57PM 30.0111 -95.0842 267° West 191 220 3,800 -480 Descending Houston Center
01:58PM 30.0064 -95.1450 265° West 193 222 3,100 -780 Descending Houston Center
01:59PM 30.0081 -95.2078 272° West 179 206 2,300 -900 Descending Houston Center
02:00PM 30.0069 -95.2658 269° West 178 205 1,300 -900 Descending Houston Center
02:01PM 30.0069 -95.3117 270° West 122 140 500 -780 Descending Houston Center